sensor_id;sensor_type;location;lat;lon;timestamp;pressure;altitude;pressure_sealevel;temperature;humidity
47753;BME280;2038;51.728;6.674;2024-03-06T00:02:08;77275.25;;;-141.64;91.50
47753;BME280;2038;51.728;6.674;2024-03-06T00:04:35;77285.03;;;-141.64;91.01
47753;BME280;2038;51.728;6.674;2024-03-06T00:07:01;77279.16;;;-141.64;91.44
47753;BME280;2038;51.728;6.674;2024-03-06T00:09:28;77288.94;;;-141.64;91.09
47753;BME280;2038;51.728;6.674;2024-03-06T00:11:55;77292.84;;;-141.64;91.29
47753;BME280;2038;51.728;6.674;2024-03-06T00:14:22;77285.03;;;-141.64;91.45
47753;BME280;2038;51.728;6.674;2024-03-06T00:16:49;77288.94;;;-141.64;91.06
47753;BME280;2038;51.728;6.674;2024-03-06T00:19:17;77286.97;;;-141.64;91.28
47753;BME280;2038;51.728;6.674;2024-03-06T00:21:44;77292.84;;;-141.64;91.47
47753;BME280;2038;51.728;6.674;2024-03-06T00:24:14;77288.94;;;-141.64;91.46
47753;BME280;2038;51.728;6.674;2024-03-06T00:26:42;77285.03;;;-141.64;90.99
47753;BME280;2038;51.728;6.674;2024-03-06T00:29:10;77286.97;;;-141.64;90.79
47753;BME280;2038;51.728;6.674;2024-03-06T00:31:42;77290.88;;;-141.64;90.52
47753;BME280;2038;51.728;6.674;2024-03-06T00:34:10;77298.69;;;-141.64;90.88
47753;BME280;2038;51.728;6.674;2024-03-06T00:36:40;77304.56;;;-141.64;90.66
47753;BME280;2038;51.728;6.674;2024-03-06T00:39:06;77298.69;;;-141.64;90.97
47753;BME280;2038;51.728;6.674;2024-03-06T00:41:34;77300.66;;;-141.64;90.80
47753;BME280;2038;51.728;6.674;2024-03-06T00:44:01;77304.56;;;-141.64;90.78
47753;BME280;2038;51.728;6.674;2024-03-06T00:46:27;77300.66;;;-141.64;90.56
47753;BME280;2038;51.728;6.674;2024-03-06T00:48:54;77308.47;;;-141.64;90.76
47753;BME280;2038;51.728;6.674;2024-03-06T00:51:20;77316.28;;;-141.64;90.27
47753;BME280;2038;51.728;6.674;2024-03-06T00:53:47;77312.38;;;-141.64;89.99
47753;BME280;2038;51.728;6.674;2024-03-06T00:56:13;77320.19;;;-141.64;89.62
47753;BME280;2038;51.728;6.674;2024-03-06T00:58:39;77324.09;;;-141.64;90.04
47753;BME280;2038;51.728;6.674;2024-03-06T01:01:05;77322.13;;;-141.64;90.03
47753;BME280;2038;51.728;6.674;2024-03-06T01:03:32;77324.09;;;-141.64;90.49
47753;BME280;2038;51.728;6.674;2024-03-06T01:05:58;77322.13;;;-141.64;90.01
47753;BME280;2038;51.728;6.674;2024-03-06T01:08:24;77318.22;;;-141.64;89.73
47753;BME280;2038;51.728;6.674;2024-03-06T01:10:51;77318.22;;;-141.64;90.23
47753;BME280;2038;51.728;6.674;2024-03-06T01:13:19;77324.09;;;-141.64;89.80
47753;BME280;2038;51.728;6.674;2024-03-06T01:15:46;77320.19;;;-141.64;89.83
47753;BME280;2038;51.728;6.674;2024-03-06T01:18:12;77331.91;;;-141.64;90.08
47753;BME280;2038;51.728;6.674;2024-03-06T01:20:38;77353.38;;;-141.64;90.47
47753;BME280;2038;51.728;6.674;2024-03-06T01:23:06;77345.56;;;-141.64;90.26
47753;BME280;2038;51.728;6.674;2024-03-06T01:25:32;77347.50;;;-141.64;90.20
47753;BME280;2038;51.728;6.674;2024-03-06T01:27:59;77341.66;;;-141.64;90.23
47753;BME280;2038;51.728;6.674;2024-03-06T01:30:25;77331.91;;;-141.64;90.03
47753;BME280;2038;51.728;6.674;2024-03-06T01:32:51;77341.66;;;-141.64;90.00
47753;BME280;2038;51.728;6.674;2024-03-06T01:35:17;77343.63;;;-141.64;90.03
47753;BME280;2038;51.728;6.674;2024-03-06T01:37:44;77351.41;;;-141.64;89.92
47753;BME280;2038;51.728;6.674;2024-03-06T01:40:11;77349.47;;;-141.64;89.68
47753;BME280;2038;51.728;6.674;2024-03-06T01:42:38;77369.00;;;-141.64;88.89
47753;BME280;2038;51.728;6.674;2024-03-06T01:45:05;77372.91;;;-141.64;88.80
47753;BME280;2038;51.728;6.674;2024-03-06T01:47:31;77384.63;;;-141.64;89.31
47753;BME280;2038;51.728;6.674;2024-03-06T01:49:58;77402.19;;;-141.64;89.57
47753;BME280;2038;51.728;6.674;2024-03-06T01:52:24;77408.06;;;-141.64;89.81
47753;BME280;2038;51.728;6.674;2024-03-06T01:54:51;77410.00;;;-141.64;89.60
47753;BME280;2038;51.728;6.674;2024-03-06T01:57:18;77421.72;;;-141.64;89.44
47753;BME280;2038;51.728;6.674;2024-03-06T01:59:46;77431.50;;;-141.64;89.90
47753;BME280;2038;51.728;6.674;2024-03-06T02:02:13;77429.53;;;-141.64;89.95
47753;BME280;2038;51.728;6.674;2024-03-06T02:04:40;77439.31;;;-141.64;89.94
47753;BME280;2038;51.728;6.674;2024-03-06T02:07:09;77447.13;;;-141.64;90.25
47753;BME280;2038;51.728;6.674;2024-03-06T02:09:39;77460.78;;;-141.64;90.03
47753;BME280;2038;51.728;6.674;2024-03-06T02:12:06;77462.75;;;-141.64;90.32
47753;BME280;2038;51.728;6.674;2024-03-06T02:14:37;77464.69;;;-141.64;90.29
47753;BME280;2038;51.728;6.674;2024-03-06T02:17:03;77470.56;;;-141.64;90.76
47753;BME280;2038;51.728;6.674;2024-03-06T02:19:40;77468.59;;;-141.64;90.50
47753;BME280;2038;51.728;6.674;2024-03-06T02:22:08;77474.47;;;-141.64;90.88
47753;BME280;2038;51.728;6.674;2024-03-06T02:24:35;77480.31;;;-141.64;90.85
47753;BME280;2038;51.728;6.674;2024-03-06T02:27:03;77488.13;;;-141.64;90.81
47753;BME280;2038;51.728;6.674;2024-03-06T02:29:32;77495.94;;;-141.64;91.04
47753;BME280;2038;51.728;6.674;2024-03-06T02:32:01;77501.81;;;-141.64;91.29
47753;BME280;2038;51.728;6.674;2024-03-06T02:34:28;77503.75;;;-141.64;90.92
47753;BME280;2038;51.728;6.674;2024-03-06T02:36:56;77515.47;;;-141.64;91.18
47753;BME280;2038;51.728;6.674;2024-03-06T02:39:22;77515.47;;;-141.64;91.44
47753;BME280;2038;51.728;6.674;2024-03-06T02:41:49;77529.16;;;-141.64;91.88
47753;BME280;2038;51.728;6.674;2024-03-06T02:44:15;77531.09;;;-141.64;91.46
47753;BME280;2038;51.728;6.674;2024-03-06T02:46:47;77540.88;;;-141.64;91.64
47753;BME280;2038;51.728;6.674;2024-03-06T02:49:17;77556.50;;;-141.64;91.04
47753;BME280;2038;51.728;6.674;2024-03-06T02:51:44;77560.41;;;-141.64;91.51
47753;BME280;2038;51.728;6.674;2024-03-06T02:54:11;77574.06;;;-141.64;91.32
47753;BME280;2038;51.728;6.674;2024-03-06T02:56:37;77570.16;;;-141.64;91.81
47753;BME280;2038;51.728;6.674;2024-03-06T02:59:03;77577.97;;;-141.64;92.16
47753;BME280;2038;51.728;6.674;2024-03-06T03:01:30;77574.06;;;-141.64;92.08
47753;BME280;2038;51.728;6.674;2024-03-06T03:03:57;77577.97;;;-141.64;91.91
47753;BME280;2038;51.728;6.674;2024-03-06T03:06:23;77587.75;;;-141.64;91.71
47753;BME280;2038;51.728;6.674;2024-03-06T03:08:52;77593.59;;;-141.64;92.14
47753;BME280;2038;51.728;6.674;2024-03-06T03:11:19;77587.75;;;-141.64;91.97
47753;BME280;2038;51.728;6.674;2024-03-06T03:13:45;77595.56;;;-141.64;92.07
47753;BME280;2038;51.728;6.674;2024-03-06T03:16:18;77601.41;;;-141.64;92.03
47753;BME280;2038;51.728;6.674;2024-03-06T03:18:46;77605.31;;;-141.64;92.36
47753;BME280;2038;51.728;6.674;2024-03-06T03:21:14;77605.31;;;-141.64;92.42
47753;BME280;2038;51.728;6.674;2024-03-06T03:23:41;77601.41;;;-141.64;92.54
47753;BME280;2038;51.728;6.674;2024-03-06T03:26:08;77601.41;;;-141.64;92.13
47753;BME280;2038;51.728;6.674;2024-03-06T03:28:38;77605.31;;;-141.64;92.57
47753;BME280;2038;51.728;6.674;2024-03-06T03:31:08;77611.16;;;-141.64;92.68
47753;BME280;2038;51.728;6.674;2024-03-06T03:33:41;77609.22;;;-141.64;92.55
47753;BME280;2038;51.728;6.674;2024-03-06T03:36:08;77607.28;;;-141.64;92.24
47753;BME280;2038;51.728;6.674;2024-03-06T03:38:37;77613.13;;;-141.64;92.42
47753;BME280;2038;51.728;6.674;2024-03-06T03:41:11;77628.75;;;-141.64;92.15
47753;BME280;2038;51.728;6.674;2024-03-06T03:43:41;77638.50;;;-141.64;91.45
47753;BME280;2038;51.728;6.674;2024-03-06T03:46:08;77644.38;;;-141.64;91.92
47753;BME280;2038;51.728;6.674;2024-03-06T03:48:35;77650.25;;;-141.64;91.82
47753;BME280;2038;51.728;6.674;2024-03-06T03:51:03;77667.81;;;-141.64;91.38
47753;BME280;2038;51.728;6.674;2024-03-06T03:53:30;77683.44;;;-141.64;91.02
47753;BME280;2038;51.728;6.674;2024-03-06T03:55:57;77695.16;;;-141.64;90.58
47753;BME280;2038;51.728;6.674;2024-03-06T03:58:23;77708.84;;;-141.64;90.63
47753;BME280;2038;51.728;6.674;2024-03-06T04:00:50;77724.47;;;-141.64;90.69
47753;BME280;2038;51.728;6.674;2024-03-06T04:03:19;77732.25;;;-141.64;90.70
47753;BME280;2038;51.728;6.674;2024-03-06T04:05:47;77742.03;;;-141.64;90.86
47753;BME280;2038;51.728;6.674;2024-03-06T04:08:14;77745.94;;;-141.64;91.13
47753;BME280;2038;51.728;6.674;2024-03-06T04:10:42;77736.16;;;-141.64;91.05
47753;BME280;2038;51.728;6.674;2024-03-06T04:13:12;77738.13;;;-141.64;91.41
47753;BME280;2038;51.728;6.674;2024-03-06T04:15:39;77736.16;;;-141.64;91.22
47753;BME280;2038;51.728;6.674;2024-03-06T04:18:05;77743.97;;;-141.64;91.18
47753;BME280;2038;51.728;6.674;2024-03-06T04:20:31;77740.09;;;-141.64;90.95
47753;BME280;2038;51.728;6.674;2024-03-06T04:22:58;77747.88;;;-141.64;90.93
47753;BME280;2038;51.728;6.674;2024-03-06T04:25:24;77761.56;;;-141.64;90.75
47753;BME280;2038;51.728;6.674;2024-03-06T04:27:50;77775.25;;;-141.64;90.29
47753;BME280;2038;51.728;6.674;2024-03-06T04:30:17;77790.88;;;-141.64;90.21
47753;BME280;2038;51.728;6.674;2024-03-06T04:32:43;77808.44;;;-141.64;90.42
47753;BME280;2038;51.728;6.674;2024-03-06T04:35:10;77826.03;;;-141.64;90.42
47753;BME280;2038;51.728;6.674;2024-03-06T04:37:37;77831.88;;;-141.64;90.59
47753;BME280;2038;51.728;6.674;2024-03-06T04:40:04;77845.56;;;-141.64;90.36
47753;BME280;2038;51.728;6.674;2024-03-06T04:42:37;77857.28;;;-141.64;89.94
47753;BME280;2038;51.728;6.674;2024-03-06T04:45:08;77861.19;;;-141.64;90.17
47753;BME280;2038;51.728;6.674;2024-03-06T04:47:41;77872.91;;;-141.64;90.53
47753;BME280;2038;51.728;6.674;2024-03-06T04:50:11;77872.91;;;-141.64;91.07
47753;BME280;2038;51.728;6.674;2024-03-06T04:52:40;77874.84;;;-141.64;91.24
47753;BME280;2038;51.728;6.674;2024-03-06T04:55:08;77857.28;;;-141.64;91.70
47753;BME280;2038;51.728;6.674;2024-03-06T04:57:38;77863.13;;;-141.64;91.56
47753;BME280;2038;51.728;6.674;2024-03-06T05:00:07;77853.38;;;-141.64;92.19
47753;BME280;2038;51.728;6.674;2024-03-06T05:02:34;77851.41;;;-141.64;91.88
47753;BME280;2038;51.728;6.674;2024-03-06T05:05:03;77857.28;;;-141.64;91.44
47753;BME280;2038;51.728;6.674;2024-03-06T05:07:33;77863.13;;;-141.64;91.42
47753;BME280;2038;51.728;6.674;2024-03-06T05:10:00;77867.03;;;-141.64;91.81
47753;BME280;2038;51.728;6.674;2024-03-06T05:12:27;77865.09;;;-141.64;91.75
47753;BME280;2038;51.728;6.674;2024-03-06T05:14:55;77861.19;;;-141.64;92.32
47753;BME280;2038;51.728;6.674;2024-03-06T05:17:21;77861.19;;;-141.64;92.10
47753;BME280;2038;51.728;6.674;2024-03-06T05:19:49;77863.13;;;-141.64;92.35
47753;BME280;2038;51.728;6.674;2024-03-06T05:22:16;77857.28;;;-141.64;92.35
47753;BME280;2038;51.728;6.674;2024-03-06T05:24:43;77859.22;;;-141.64;92.24
47753;BME280;2038;51.728;6.674;2024-03-06T05:27:10;77859.22;;;-141.64;92.04
47753;BME280;2038;51.728;6.674;2024-03-06T05:29:39;77870.94;;;-141.64;91.74
47753;BME280;2038;51.728;6.674;2024-03-06T05:32:05;77865.09;;;-141.64;92.21
47753;BME280;2038;51.728;6.674;2024-03-06T05:34:34;77865.09;;;-141.64;92.21
47753;BME280;2038;51.728;6.674;2024-03-06T05:37:01;77872.91;;;-141.64;92.38
47753;BME280;2038;51.728;6.674;2024-03-06T05:39:30;77865.09;;;-141.64;92.50
47753;BME280;2038;51.728;6.674;2024-03-06T05:42:00;77861.19;;;-141.64;92.24
47753;BME280;2038;51.728;6.674;2024-03-06T05:44:30;77863.13;;;-141.64;92.45
47753;BME280;2038;51.728;6.674;2024-03-06T05:47:02;77859.22;;;-141.64;92.45
47753;BME280;2038;51.728;6.674;2024-03-06T05:49:29;77861.19;;;-141.64;92.79
47753;BME280;2038;51.728;6.674;2024-03-06T05:51:55;77853.38;;;-141.64;92.71
47753;BME280;2038;51.728;6.674;2024-03-06T05:54:22;77861.19;;;-141.64;92.62
47753;BME280;2038;51.728;6.674;2024-03-06T05:56:50;77859.22;;;-141.64;92.51
47753;BME280;2038;51.728;6.674;2024-03-06T05:59:19;77865.09;;;-141.64;92.33
47753;BME280;2038;51.728;6.674;2024-03-06T06:01:46;77876.81;;;-141.64;92.02
47753;BME280;2038;51.728;6.674;2024-03-06T06:04:13;77888.53;;;-141.64;91.96
47753;BME280;2038;51.728;6.674;2024-03-06T06:06:40;77890.47;;;-141.64;91.85
47753;BME280;2038;51.728;6.674;2024-03-06T06:09:07;77894.38;;;-141.64;92.10
47753;BME280;2038;51.728;6.674;2024-03-06T06:11:38;77894.38;;;-141.64;92.20
47753;BME280;2038;51.728;6.674;2024-03-06T06:14:05;77904.16;;;-141.64;92.13
47753;BME280;2038;51.728;6.674;2024-03-06T06:16:36;77911.97;;;-141.64;92.03
47753;BME280;2038;51.728;6.674;2024-03-06T06:19:03;77910.00;;;-141.64;91.72
47753;BME280;2038;51.728;6.674;2024-03-06T06:21:30;77935.41;;;-141.64;91.32
47753;BME280;2038;51.728;6.674;2024-03-06T06:23:56;77947.13;;;-141.64;91.54
47753;BME280;2038;51.728;6.674;2024-03-06T06:26:22;77968.59;;;-141.64;90.86
47753;BME280;2038;51.728;6.674;2024-03-06T06:28:49;77972.50;;;-141.64;91.02
47753;BME280;2038;51.728;6.674;2024-03-06T06:31:15;77974.47;;;-141.64;90.83
47753;BME280;2038;51.728;6.674;2024-03-06T06:33:42;77976.41;;;-141.64;91.05
47753;BME280;2038;51.728;6.674;2024-03-06T06:36:08;77980.31;;;-141.64;91.17
47753;BME280;2038;51.728;6.674;2024-03-06T06:38:35;77978.38;;;-141.64;91.12
47753;BME280;2038;51.728;6.674;2024-03-06T06:41:01;78005.72;;;-141.64;90.78
47753;BME280;2038;51.728;6.674;2024-03-06T06:43:28;78011.56;;;-141.64;91.09
47753;BME280;2038;51.728;6.674;2024-03-06T06:45:54;78019.38;;;-141.64;91.31
47753;BME280;2038;51.728;6.674;2024-03-06T06:48:21;78015.47;;;-141.64;91.24
47753;BME280;2038;51.728;6.674;2024-03-06T06:50:47;78021.34;;;-141.64;91.39
47753;BME280;2038;51.728;6.674;2024-03-06T06:53:14;78023.31;;;-141.64;91.67
47753;BME280;2038;51.728;6.674;2024-03-06T06:55:40;78021.34;;;-141.64;91.71
47753;BME280;2038;51.728;6.674;2024-03-06T06:58:06;78011.56;;;-141.64;91.85
47753;BME280;2038;51.728;6.674;2024-03-06T07:00:33;78019.38;;;-141.64;91.80
47753;BME280;2038;51.728;6.674;2024-03-06T07:03:00;78011.56;;;-141.64;92.09
47753;BME280;2038;51.728;6.674;2024-03-06T07:05:26;78007.66;;;-141.64;91.98
47753;BME280;2038;51.728;6.674;2024-03-06T07:07:52;78001.81;;;-141.64;92.11
47753;BME280;2038;51.728;6.674;2024-03-06T07:10:19;77994.00;;;-141.64;91.81
47753;BME280;2038;51.728;6.674;2024-03-06T07:12:45;77994.00;;;-141.64;91.89
47753;BME280;2038;51.728;6.674;2024-03-06T07:15:11;77986.19;;;-141.64;91.75
47753;BME280;2038;51.728;6.674;2024-03-06T07:17:38;77990.09;;;-141.64;91.71
47753;BME280;2038;51.728;6.674;2024-03-06T07:20:05;77990.09;;;-141.64;91.95
47753;BME280;2038;51.728;6.674;2024-03-06T07:22:32;77982.28;;;-141.64;92.00
47753;BME280;2038;51.728;6.674;2024-03-06T07:25:00;77978.38;;;-141.64;92.21
47753;BME280;2038;51.728;6.674;2024-03-06T07:27:28;77972.50;;;-141.64;92.14
47753;BME280;2038;51.728;6.674;2024-03-06T07:29:54;77962.75;;;-141.64;92.35
47753;BME280;2038;51.728;6.674;2024-03-06T07:32:20;77949.06;;;-141.64;92.47
47753;BME280;2038;51.728;6.674;2024-03-06T07:34:46;77945.16;;;-141.64;92.46
47753;BME280;2038;51.728;6.674;2024-03-06T07:37:13;77941.25;;;-141.64;92.73
47753;BME280;2038;51.728;6.674;2024-03-06T07:39:40;77925.63;;;-141.64;92.59
47753;BME280;2038;51.728;6.674;2024-03-06T07:42:07;77919.78;;;-141.64;92.77
47753;BME280;2038;51.728;6.674;2024-03-06T07:44:33;77910.00;;;-141.64;92.41
47753;BME280;2038;51.728;6.674;2024-03-06T07:47:01;77900.25;;;-141.64;92.47
47753;BME280;2038;51.728;6.674;2024-03-06T07:49:27;77888.53;;;-141.64;92.64
47753;BME280;2038;51.728;6.674;2024-03-06T07:51:54;77878.75;;;-141.64;92.80
47753;BME280;2038;51.728;6.674;2024-03-06T07:54:20;77867.03;;;-141.64;92.96
47753;BME280;2038;51.728;6.674;2024-03-06T07:56:47;77857.28;;;-141.64;93.65
47753;BME280;2038;51.728;6.674;2024-03-06T07:59:14;77847.50;;;-141.64;93.85
47753;BME280;2038;51.728;6.674;2024-03-06T08:01:41;77826.03;;;-141.64;93.62
47753;BME280;2038;51.728;6.674;2024-03-06T08:04:07;77814.31;;;-141.64;93.74
47753;BME280;2038;51.728;6.674;2024-03-06T08:06:33;77802.59;;;-141.64;93.47
47753;BME280;2038;51.728;6.674;2024-03-06T08:09:03;77792.81;;;-141.64;93.52
47753;BME280;2038;51.728;6.674;2024-03-06T08:11:29;77786.97;;;-141.64;93.62
47753;BME280;2038;51.728;6.674;2024-03-06T08:13:59;77765.47;;;-141.64;93.58
47753;BME280;2038;51.728;6.674;2024-03-06T08:16:27;77757.66;;;-141.64;93.78
47753;BME280;2038;51.728;6.674;2024-03-06T08:18:56;77736.16;;;-141.64;93.80
47753;BME280;2038;51.728;6.674;2024-03-06T08:21:24;77732.25;;;-141.64;94.17
47753;BME280;2038;51.728;6.674;2024-03-06T08:23:50;77718.59;;;-141.64;93.72
47753;BME280;2038;51.728;6.674;2024-03-06T08:26:17;77704.91;;;-141.64;93.77
47753;BME280;2038;51.728;6.674;2024-03-06T08:28:44;77691.25;;;-141.64;93.59
47753;BME280;2038;51.728;6.674;2024-03-06T08:31:10;77683.44;;;-141.64;93.13
47753;BME280;2038;51.728;6.674;2024-03-06T08:33:36;77687.34;;;-141.64;93.47
47753;BME280;2038;51.728;6.674;2024-03-06T08:36:03;77679.53;;;-141.64;93.66
47753;BME280;2038;51.728;6.674;2024-03-06T08:38:30;77673.66;;;-141.64;93.08
47753;BME280;2038;51.728;6.674;2024-03-06T08:40:56;77663.91;;;-141.64;93.36
47753;BME280;2038;51.728;6.674;2024-03-06T08:43:22;77663.91;;;-141.64;93.62
47753;BME280;2038;51.728;6.674;2024-03-06T08:45:49;77654.13;;;-141.64;93.42
47753;BME280;2038;51.728;6.674;2024-03-06T08:48:15;77658.03;;;-141.64;93.26
47753;BME280;2038;51.728;6.674;2024-03-06T08:50:41;77654.13;;;-141.64;93.24
47753;BME280;2038;51.728;6.674;2024-03-06T08:53:07;77648.28;;;-141.64;93.25
47753;BME280;2038;51.728;6.674;2024-03-06T08:55:36;77638.50;;;-141.64;93.07
47753;BME280;2038;51.728;6.674;2024-03-06T08:58:02;77640.47;;;-141.64;93.33
47753;BME280;2038;51.728;6.674;2024-03-06T09:00:29;77626.78;;;-141.64;92.85
47753;BME280;2038;51.728;6.674;2024-03-06T09:02:55;77626.78;;;-141.64;92.83
47753;BME280;2038;51.728;6.674;2024-03-06T09:05:21;77620.94;;;-141.64;92.39
47753;BME280;2038;51.728;6.674;2024-03-06T09:07:48;77613.13;;;-141.64;92.93
47753;BME280;2038;51.728;6.674;2024-03-06T09:10:14;77605.31;;;-141.64;92.84
47753;BME280;2038;51.728;6.674;2024-03-06T09:12:40;77599.44;;;-141.64;92.16
47753;BME280;2038;51.728;6.674;2024-03-06T09:15:07;77583.81;;;-141.64;92.74
47753;BME280;2038;51.728;6.674;2024-03-06T09:17:34;77570.16;;;-141.64;92.30
47753;BME280;2038;51.728;6.674;2024-03-06T09:20:01;77558.44;;;-141.64;92.35
47753;BME280;2038;51.728;6.674;2024-03-06T09:22:38;77550.63;;;-141.64;91.78
47753;BME280;2038;51.728;6.674;2024-03-06T09:25:06;77550.63;;;-141.64;91.72
47753;BME280;2038;51.728;6.674;2024-03-06T09:27:33;77552.59;;;-141.64;91.44
47753;BME280;2038;51.728;6.674;2024-03-06T09:29:59;77548.69;;;-141.64;90.88
47753;BME280;2038;51.728;6.674;2024-03-06T09:32:25;77540.88;;;-141.64;91.67
47753;BME280;2038;51.728;6.674;2024-03-06T09:34:52;77525.25;;;-141.64;91.62
47753;BME280;2038;51.728;6.674;2024-03-06T09:37:19;77521.34;;;-141.64;91.00
47753;BME280;2038;51.728;6.674;2024-03-06T09:39:45;77513.53;;;-141.64;90.70
47753;BME280;2038;51.728;6.674;2024-03-06T09:42:18;77511.56;;;-141.64;91.07
47753;BME280;2038;51.728;6.674;2024-03-06T09:44:44;77497.91;;;-141.64;91.29
47753;BME280;2038;51.728;6.674;2024-03-06T09:47:13;77490.09;;;-141.64;90.80
47753;BME280;2038;51.728;6.674;2024-03-06T09:49:41;77494.00;;;-141.64;89.56
47753;BME280;2038;51.728;6.674;2024-03-06T09:52:07;77494.00;;;-141.64;89.87
47753;BME280;2038;51.728;6.674;2024-03-06T09:54:34;77476.41;;;-141.64;90.13
47753;BME280;2038;51.728;6.674;2024-03-06T09:57:00;77466.66;;;-141.64;90.10
47753;BME280;2038;51.728;6.674;2024-03-06T09:59:27;77464.69;;;-141.64;89.39
47753;BME280;2038;51.728;6.674;2024-03-06T10:01:55;77449.06;;;-141.64;89.91
47753;BME280;2038;51.728;6.674;2024-03-06T10:04:27;77452.97;;;-141.64;89.39
47753;BME280;2038;51.728;6.674;2024-03-06T10:06:58;77464.69;;;-141.64;88.60
47753;BME280;2038;51.728;6.674;2024-03-06T10:09:26;77464.69;;;-141.64;88.99
47753;BME280;2038;51.728;6.674;2024-03-06T10:11:53;77452.97;;;-141.64;89.66
47753;BME280;2038;51.728;6.674;2024-03-06T10:14:22;77429.53;;;-141.64;88.82
47753;BME280;2038;51.728;6.674;2024-03-06T10:16:59;77417.81;;;-141.64;88.25
47753;BME280;2038;51.728;6.674;2024-03-06T10:19:27;77408.06;;;-141.64;88.63
47753;BME280;2038;51.728;6.674;2024-03-06T10:21:56;77396.34;;;-141.64;88.23
47753;BME280;2038;51.728;6.674;2024-03-06T10:24:24;77386.56;;;-141.64;88.05
47753;BME280;2038;51.728;6.674;2024-03-06T10:26:55;77390.47;;;-141.64;88.00
47753;BME280;2038;51.728;6.674;2024-03-06T10:29:26;77394.38;;;-141.64;87.23
47753;BME280;2038;51.728;6.674;2024-03-06T10:31:57;77386.56;;;-141.64;87.08
47753;BME280;2038;51.728;6.674;2024-03-06T10:34:26;77394.38;;;-141.64;86.42
47753;BME280;2038;51.728;6.674;2024-03-06T10:37:03;77386.56;;;-141.64;86.58
47753;BME280;2038;51.728;6.674;2024-03-06T10:39:36;77370.94;;;-141.64;86.49
47753;BME280;2038;51.728;6.674;2024-03-06T10:42:08;77355.34;;;-141.64;86.35
47753;BME280;2038;51.728;6.674;2024-03-06T10:44:46;77349.47;;;-141.64;85.34
47753;BME280;2038;51.728;6.674;2024-03-06T10:47:19;77343.63;;;-141.64;85.04
47753;BME280;2038;51.728;6.674;2024-03-06T10:49:46;77351.41;;;-141.64;84.94
47753;BME280;2038;51.728;6.674;2024-03-06T10:52:14;77337.75;;;-141.64;85.29
47753;BME280;2038;51.728;6.674;2024-03-06T10:54:44;77328.00;;;-141.64;85.38
47753;BME280;2038;51.728;6.674;2024-03-06T10:57:14;77320.19;;;-141.64;85.06
47753;BME280;2038;51.728;6.674;2024-03-06T10:59:41;77322.13;;;-141.64;83.99
47753;BME280;2038;51.728;6.674;2024-03-06T11:02:09;77329.94;;;-141.64;83.80
47753;BME280;2038;51.728;6.674;2024-03-06T11:04:36;77310.41;;;-141.64;83.99
47753;BME280;2038;51.728;6.674;2024-03-06T11:07:06;77277.22;;;-141.64;84.57
47753;BME280;2038;51.728;6.674;2024-03-06T11:09:36;77261.59;;;-141.64;83.74
47753;BME280;2038;51.728;6.674;2024-03-06T11:12:05;77277.22;;;-141.64;81.43
47753;BME280;2038;51.728;6.674;2024-03-06T11:14:36;77273.31;;;-141.64;81.75
47753;BME280;2038;51.728;6.674;2024-03-06T11:17:09;77271.34;;;-141.64;81.93
47753;BME280;2038;51.728;6.674;2024-03-06T11:28:16;77339.72;;;-141.64;81.51
47753;BME280;2038;51.728;6.674;2024-03-06T11:33:19;77328.00;;;-141.64;82.55
47753;BME280;2038;51.728;6.674;2024-03-06T11:39:05;77324.09;;;-141.64;82.25
47753;BME280;2038;51.728;6.674;2024-03-06T11:44:20;77306.50;;;-141.64;81.16
47753;BME280;2038;51.728;6.674;2024-03-06T11:49:27;77328.00;;;-141.64;80.31
47753;BME280;2038;51.728;6.674;2024-03-06T11:52:07;77300.66;;;-141.64;80.71
47753;BME280;2038;51.728;6.674;2024-03-06T11:54:34;77294.78;;;-141.64;81.17
47753;BME280;2038;51.728;6.674;2024-03-06T11:57:03;77285.03;;;-141.64;80.40
47753;BME280;2038;51.728;6.674;2024-03-06T11:59:35;77285.03;;;-141.64;81.09
47753;BME280;2038;51.728;6.674;2024-03-06T12:02:05;77257.69;;;-141.64;81.22
47753;BME280;2038;51.728;6.674;2024-03-06T12:04:33;77230.34;;;-141.64;81.83
47753;BME280;2038;51.728;6.674;2024-03-06T12:07:02;77195.19;;;-141.64;81.26
47753;BME280;2038;51.728;6.674;2024-03-06T12:09:33;77181.53;;;-141.64;79.84
47753;BME280;2038;51.728;6.674;2024-03-06T12:12:00;77158.09;;;-141.64;79.23
47753;BME280;2038;51.728;6.674;2024-03-06T12:14:26;77144.41;;;-141.64;78.76
47753;BME280;2038;51.728;6.674;2024-03-06T12:16:57;77130.75;;;-141.64;78.24
47753;BME280;2038;51.728;6.674;2024-03-06T12:19:32;77138.56;;;-141.64;77.38
47753;BME280;2038;51.728;6.674;2024-03-06T12:22:01;77165.91;;;-141.64;74.77
47753;BME280;2038;51.728;6.674;2024-03-06T12:24:29;77148.31;;;-141.64;75.37
47753;BME280;2038;51.728;6.674;2024-03-06T12:27:02;77150.28;;;-141.64;75.83
47753;BME280;2038;51.728;6.674;2024-03-06T12:29:31;77132.69;;;-141.64;77.07
47753;BME280;2038;51.728;6.674;2024-03-06T12:31:59;77126.84;;;-141.64;76.17
47753;BME280;2038;51.728;6.674;2024-03-06T12:34:26;77117.06;;;-141.64;75.86
47753;BME280;2038;51.728;6.674;2024-03-06T12:36:53;77117.06;;;-141.64;75.45
47753;BME280;2038;51.728;6.674;2024-03-06T12:39:19;77128.78;;;-141.64;74.97
47753;BME280;2038;51.728;6.674;2024-03-06T12:41:52;77140.50;;;-141.64;73.81
47753;BME280;2038;51.728;6.674;2024-03-06T12:44:21;77148.31;;;-141.64;74.50
47753;BME280;2038;51.728;6.674;2024-03-06T12:46:48;77144.41;;;-141.64;73.90
47753;BME280;2038;51.728;6.674;2024-03-06T12:49:15;77134.66;;;-141.64;74.50
47753;BME280;2038;51.728;6.674;2024-03-06T12:51:41;77142.47;;;-141.64;72.89
47753;BME280;2038;51.728;6.674;2024-03-06T12:54:08;77146.38;;;-141.64;71.77
47753;BME280;2038;51.728;6.674;2024-03-06T12:56:34;77146.38;;;-141.64;72.15
47753;BME280;2038;51.728;6.674;2024-03-06T12:59:01;77144.41;;;-141.64;72.45
47753;BME280;2038;51.728;6.674;2024-03-06T13:01:27;77146.38;;;-141.64;73.17
47753;BME280;2038;51.728;6.674;2024-03-06T13:03:53;77158.09;;;-141.64;71.45
47753;BME280;2038;51.728;6.674;2024-03-06T13:06:20;77158.09;;;-141.64;72.01
47753;BME280;2038;51.728;6.674;2024-03-06T13:08:47;77156.13;;;-141.64;72.03
47753;BME280;2038;51.728;6.674;2024-03-06T13:11:14;77163.94;;;-141.64;72.31
47753;BME280;2038;51.728;6.674;2024-03-06T13:13:40;77167.84;;;-141.64;70.82